Gallupville, New York
Current Conditions -  °F | °C
As of 5:51 AM on Friday 19 Dec 2014 (Local Time) from KALB Reporting Station
Overcast Overcast  
Wind Chill: 21°   Ceiling: 4600
Heat Index: 31°   Visibility: 10mi
Dew Point: 21°   Wind: 13mph
Humidity: 67%   Direction: 310°NW
Pressure: 29.98"   Gusts: NA
Location:  42.66°N, 74.23°W
Report Text: KALB 191051Z 31011KT 10SM FEW025 OVC046 M01/M06 A2998 RMK AO2 SLP156 T10061061
Loading
Personal Weather Stations






























Interactive Weather Map New forecast layout! Learn more

10-Day Weather Forecast

Advertisements
Track Severe Weather on mobile